createdAt,value
2022-08-28T00:01:35.178Z,58.50
2022-08-28T00:03:37.929Z,54.53
2022-08-28T00:05:43.506Z,52.60
2022-08-28T00:07:47.934Z,55.90
2022-08-28T00:09:50.855Z,51.33
2022-08-28T00:11:53.811Z,50.57
2022-08-28T00:13:56.789Z,50.00
2022-08-28T00:16:01.727Z,48.20
2022-08-28T00:18:05.715Z,48.27
2022-08-28T00:20:10.999Z,48.97
2022-08-28T00:22:15.182Z,46.90
2022-08-28T00:24:18.627Z,47.70
2022-08-28T00:26:35.680Z,47.67
2022-08-28T00:28:38.362Z,43.27
2022-08-28T00:30:43.586Z,44.37
2022-08-28T00:32:46.427Z,44.77
2022-08-28T00:34:49.113Z,41.30
2022-08-28T00:36:51.761Z,47.23
2022-08-28T00:38:56.855Z,46.43
2022-08-28T00:41:04.035Z,39.40
2022-08-28T00:43:09.900Z,40.87
2022-08-28T00:45:12.642Z,43.57
2022-08-28T00:47:15.391Z,47.83
2022-08-28T00:49:22.213Z,45.57
2022-08-28T00:51:42.992Z,48.17
2022-08-28T00:53:46.056Z,48.53
2022-08-28T00:55:50.773Z,49.60
2022-08-28T00:57:55.947Z,46.77
2022-08-28T00:59:58.682Z,50.90
2022-08-28T01:02:02.152Z,47.73
2022-08-28T01:04:06.171Z,48.60
2022-08-28T01:06:09.890Z,46.20
2022-08-28T01:08:12.796Z,49.30
2022-08-28T01:10:21.989Z,47.20
2022-08-28T01:12:30.708Z,50.57
2022-08-28T01:14:36.266Z,57.43
2022-08-28T01:16:41.182Z,46.30
2022-08-28T01:18:44.878Z,45.83
2022-08-28T01:20:54.177Z,46.50
2022-08-28T01:23:04.612Z,46.27
2022-08-28T01:25:13.166Z,50.30
2022-08-28T01:27:16.072Z,50.03
2022-08-28T01:29:20.772Z,50.50
2022-08-28T01:31:25.032Z,48.90
2022-08-28T01:33:28.949Z,49.43
2022-08-28T01:35:34.693Z,50.53
2022-08-28T01:37:38.554Z,47.70
2022-08-28T01:39:41.253Z,51.67
2022-08-28T01:41:47.961Z,49.80
2022-08-28T01:43:50.693Z,53.33
2022-08-28T01:45:55.999Z,44.90
2022-08-28T01:47:58.764Z,52.40
2022-08-28T01:50:01.389Z,49.33
2022-08-28T01:52:05.419Z,51.90
2022-08-28T01:54:09.954Z,55.47
2022-08-28T01:56:16.126Z,53.90
2022-08-28T01:58:20.751Z,54.83
2022-08-28T02:00:26.890Z,53.83
2022-08-28T02:02:31.716Z,55.33
2022-08-28T02:04:34.492Z,58.20
2022-08-28T02:06:37.821Z,58.87
2022-08-28T02:08:40.656Z,56.73
2022-08-28T02:10:44.611Z,62.43
2022-08-28T02:12:49.094Z,62.10
2022-08-28T02:14:53.109Z,67.20
2022-08-28T02:16:56.205Z,59.90
2022-08-28T02:18:58.891Z,66.10
2022-08-28T02:21:01.623Z,63.83
2022-08-28T02:23:06.052Z,60.27
2022-08-28T02:25:10.390Z,60.93
2022-08-28T02:27:13.520Z,65.07
2022-08-28T02:29:16.190Z,60.67
2022-08-28T02:31:20.857Z,61.90
2022-08-28T02:33:23.592Z,64.93
2022-08-28T02:35:26.257Z,61.60
2022-08-28T02:37:29.003Z,62.43
2022-08-28T02:39:32.715Z,65.87
2022-08-28T02:41:35.362Z,64.57
2022-08-28T02:43:38.486Z,65.37
2022-08-28T02:45:41.159Z,57.27
2022-08-28T02:47:46.726Z,66.60
2022-08-28T02:49:49.872Z,64.23
2022-08-28T02:51:52.585Z,59.23
2022-08-28T02:53:56.475Z,61.17
2022-08-28T02:56:00.507Z,58.90
2022-08-28T02:58:03.141Z,61.03
2022-08-28T03:00:07.572Z,57.57
2022-08-28T03:02:10.354Z,60.33
2022-08-28T03:04:14.445Z,59.03
2022-08-28T03:06:17.144Z,56.47
2022-08-28T03:08:19.831Z,57.60
2022-08-28T03:10:26.015Z,51.80
2022-08-28T03:12:28.981Z,51.73
2022-08-28T03:14:31.673Z,58.80
2022-08-28T03:16:34.661Z,56.43
2022-08-28T03:18:37.773Z,51.30
2022-08-28T03:20:42.374Z,47.83
2022-08-28T03:23:05.076Z,48.83
2022-08-28T03:25:08.549Z,48.93
2022-08-28T03:27:11.807Z,55.30
2022-08-28T03:29:14.622Z,49.60
2022-08-28T03:31:20.983Z,50.47
2022-08-28T03:33:23.733Z,53.87
2022-08-28T03:35:26.411Z,52.00
2022-08-28T03:37:30.483Z,53.83
2022-08-28T03:39:33.113Z,49.47
2022-08-28T03:41:36.002Z,54.90
2022-08-28T03:43:38.981Z,55.73
2022-08-28T03:45:41.971Z,51.53
2022-08-28T03:47:44.669Z,53.00
2022-08-28T03:49:48.121Z,53.40
2022-08-28T03:51:50.835Z,52.83
2022-08-28T03:53:55.453Z,51.80
2022-08-28T03:55:58.812Z,52.60
2022-08-28T03:58:02.045Z,55.27
2022-08-28T04:00:09.188Z,51.40
2022-08-28T04:02:11.860Z,54.10
2022-08-28T04:04:14.860Z,55.97
2022-08-28T04:06:18.232Z,53.23
2022-08-28T04:08:22.565Z,52.57
2022-08-28T04:10:26.591Z,50.77
2022-08-28T04:12:29.259Z,56.40
2022-08-28T04:14:38.494Z,54.33
2022-08-28T04:16:41.395Z,50.50
2022-08-28T04:18:44.227Z,50.00
2022-08-28T04:20:46.888Z,53.17
2022-08-28T04:22:49.863Z,50.37
2022-08-28T04:24:57.847Z,47.30
2022-08-28T04:27:01.883Z,52.73
2022-08-28T04:29:05.180Z,47.07
2022-08-28T04:31:09.031Z,47.90
2022-08-28T04:33:12.100Z,44.90
2022-08-28T04:35:16.062Z,46.90
2022-08-28T04:37:19.027Z,48.87
2022-08-28T04:39:21.743Z,48.67
2022-08-28T04:41:24.477Z,48.00
2022-08-28T04:43:28.535Z,50.27
2022-08-28T04:45:32.049Z,50.90
2022-08-28T04:47:36.615Z,45.03
2022-08-28T04:49:40.578Z,47.97
2022-08-28T04:51:43.307Z,47.50
2022-08-28T04:53:49.713Z,56.33
2022-08-28T04:55:55.238Z,54.60
2022-08-28T04:57:58.120Z,50.73
2022-08-28T05:00:02.303Z,49.77
2022-08-28T05:02:05.554Z,57.33
2022-08-28T05:04:08.383Z,45.87
2022-08-28T05:06:13.882Z,42.03
2022-08-28T05:08:19.379Z,50.93
2022-08-28T05:10:22.143Z,44.63
2022-08-28T05:12:24.875Z,43.40
2022-08-28T05:14:27.549Z,45.87
2022-08-28T05:16:31.781Z,51.37
2022-08-28T05:18:34.728Z,42.23
2022-08-28T05:20:38.523Z,44.60
2022-08-28T05:22:41.204Z,44.27
2022-08-28T05:24:44.241Z,46.40
2022-08-28T05:26:48.059Z,50.30
2022-08-28T05:28:51.449Z,49.73
2022-08-28T05:30:54.135Z,48.30
2022-08-28T05:32:59.142Z,44.80
2022-08-28T05:35:01.820Z,43.17
2022-08-28T05:37:06.486Z,46.93
2022-08-28T05:39:11.645Z,40.60
2022-08-28T05:41:20.579Z,45.33
2022-08-28T05:43:23.227Z,44.67
2022-08-28T05:45:26.048Z,44.27
2022-08-28T05:47:32.450Z,46.00
2022-08-28T05:49:36.447Z,43.43
2022-08-28T05:51:41.529Z,42.40
2022-08-28T05:53:46.452Z,42.67
2022-08-28T05:55:51.700Z,34.70
2022-08-28T05:57:54.712Z,39.70
2022-08-28T05:59:57.429Z,43.30
2022-08-28T06:02:04.149Z,40.20
2022-08-28T06:04:09.796Z,44.10
2022-08-28T06:06:14.410Z,39.90
2022-08-28T06:08:17.087Z,37.13
2022-08-28T06:10:19.977Z,38.43
2022-08-28T06:12:22.725Z,36.70
2022-08-28T06:14:25.880Z,37.40
2022-08-28T06:16:29.173Z,35.27
2022-08-28T06:18:32.371Z,36.93
2022-08-28T06:20:37.621Z,34.83
2022-08-28T06:22:41.620Z,34.60
2022-08-28T06:24:44.279Z,38.77
2022-08-28T06:26:47.027Z,34.97
2022-08-28T06:28:49.852Z,34.70
2022-08-28T06:31:18.686Z,36.57
2022-08-28T06:33:17.857Z,31.27
2022-08-28T06:35:20.560Z,31.93
2022-08-28T06:37:23.225Z,33.70
2022-08-28T06:39:27.241Z,31.73
2022-08-28T06:41:32.074Z,32.60
2022-08-28T06:43:34.785Z,28.23
2022-08-28T06:45:42.149Z,34.03
2022-08-28T06:47:44.792Z,31.67
2022-08-28T06:49:47.450Z,33.43
2022-08-28T06:51:50.392Z,27.77
2022-08-28T06:53:53.367Z,30.30
2022-08-28T06:56:06.483Z,28.20
2022-08-28T06:58:10.393Z,29.50
2022-08-28T07:00:14.050Z,29.63
2022-08-28T07:02:16.870Z,29.73
2022-08-28T07:04:19.960Z,28.60
2022-08-28T07:06:24.163Z,28.80
2022-08-28T07:08:27.966Z,29.63
2022-08-28T07:10:31.228Z,29.23
2022-08-28T07:12:35.598Z,29.87
2022-08-28T07:14:38.660Z,26.70
2022-08-28T07:16:41.742Z,30.87
2022-08-28T07:18:45.328Z,29.17
2022-08-28T07:20:56.554Z,31.13
2022-08-28T07:22:59.613Z,31.13
2022-08-28T07:25:02.703Z,28.90
2022-08-28T07:27:05.497Z,29.93
2022-08-28T07:29:11.436Z,29.83
2022-08-28T07:31:17.562Z,25.30
2022-08-28T07:33:20.309Z,26.37
2022-08-28T07:35:23.232Z,28.03
2022-08-28T07:37:26.036Z,27.87
2022-08-28T07:39:28.689Z,26.00
2022-08-28T07:41:33.892Z,27.03
2022-08-28T07:43:54.307Z,30.27
2022-08-28T07:46:03.161Z,28.43
2022-08-28T07:48:11.325Z,29.53
2022-08-28T07:50:15.157Z,28.20
2022-08-28T07:52:17.877Z,26.10
2022-08-28T07:54:20.967Z,24.60
2022-08-28T07:56:24.209Z,24.83
2022-08-28T07:58:27.258Z,24.47
2022-08-28T08:00:29.949Z,27.20
2022-08-28T08:02:34.143Z,23.90
2022-08-28T08:04:37.301Z,26.47
2022-08-28T08:06:42.095Z,24.20
2022-08-28T08:08:45.921Z,25.40
2022-08-28T08:10:57.415Z,23.60
2022-08-28T08:13:00.182Z,24.93
2022-08-28T08:15:02.924Z,24.53
2022-08-28T08:17:07.444Z,25.63
2022-08-28T08:19:14.853Z,22.23
2022-08-28T08:21:19.926Z,21.90
2022-08-28T08:23:22.903Z,23.93
2022-08-28T08:25:25.589Z,23.40
2022-08-28T08:27:28.550Z,22.17
2022-08-28T08:29:35.876Z,20.33
2022-08-28T08:31:38.753Z,21.90
2022-08-28T08:33:48.366Z,20.67
2022-08-28T08:35:52.418Z,22.30
2022-08-28T08:37:55.136Z,24.50
2022-08-28T08:39:57.894Z,22.03
2022-08-28T08:42:03.814Z,21.30
2022-08-28T08:44:09.929Z,21.20
2022-08-28T08:46:12.688Z,21.80
2022-08-28T08:48:25.834Z,21.63
2022-08-28T08:50:31.440Z,22.20
2022-08-28T08:52:52.620Z,21.47
2022-08-28T08:55:07.099Z,21.07
2022-08-28T08:57:12.349Z,18.90
2022-08-28T08:59:18.583Z,19.73
2022-08-28T09:01:26.827Z,18.27
2022-08-28T09:03:45.589Z,17.30
2022-08-28T09:05:53.615Z,16.00
2022-08-28T09:08:02.656Z,16.60
2022-08-28T09:10:08.374Z,19.33
2022-08-28T09:12:15.981Z,18.53
2022-08-28T09:14:30.763Z,18.97
2022-08-28T09:16:37.453Z,18.40
2022-08-28T09:18:40.424Z,19.30
2022-08-28T09:20:43.147Z,18.30
2022-08-28T09:22:48.988Z,18.27
2022-08-28T09:24:54.530Z,19.03
2022-08-28T09:27:00.211Z,18.87
2022-08-28T09:29:06.511Z,17.63
2022-08-28T09:31:13.972Z,18.53
2022-08-28T09:33:28.184Z,19.67
2022-08-28T09:35:32.826Z,18.80
2022-08-28T09:37:37.300Z,16.60
2022-08-28T09:39:40.584Z,15.70
2022-08-28T09:42:17.435Z,15.53
2022-08-28T09:44:19.218Z,15.00
2022-08-28T09:46:25.692Z,15.20
2022-08-28T09:48:35.644Z,14.00
2022-08-28T09:50:41.647Z,13.10
2022-08-28T09:52:44.359Z,15.23
2022-08-28T09:54:48.256Z,15.40
2022-08-28T09:56:52.673Z,13.63
2022-08-28T09:58:59.434Z,16.17
2022-08-28T10:01:11.457Z,13.07
2022-08-28T10:03:19.052Z,12.37
2022-08-28T10:05:36.184Z,12.57
2022-08-28T10:07:48.647Z,12.90
2022-08-28T10:10:02.214Z,11.17
2022-08-28T10:12:28.877Z,11.20
2022-08-28T10:14:45.477Z,12.47
2022-08-28T10:16:58.285Z,11.20
2022-08-28T10:19:07.316Z,11.00
2022-08-28T10:21:19.043Z,11.43
2022-08-28T10:23:32.706Z,12.20
2022-08-28T10:25:43.292Z,11.50
2022-08-28T10:28:03.132Z,11.90
2022-08-28T10:30:13.131Z,12.67
2022-08-28T10:32:43.632Z,13.27
2022-08-28T10:35:01.471Z,13.33
2022-08-28T10:37:13.108Z,14.67
2022-08-28T10:39:31.299Z,14.83
2022-08-28T10:41:42.105Z,14.20
2022-08-28T10:43:49.661Z,12.20
2022-08-28T10:45:54.812Z,12.73
2022-08-28T10:48:01.334Z,13.17
2022-08-28T10:50:10.287Z,14.30
2022-08-28T10:52:18.048Z,13.73
2022-08-28T10:54:27.423Z,12.80
2022-08-28T10:56:37.811Z,17.40
2022-08-28T10:58:41.709Z,13.33
2022-08-28T11:00:47.485Z,13.93
2022-08-28T11:02:53.901Z,14.57
2022-08-28T11:04:58.883Z,14.67
2022-08-28T11:07:05.759Z,13.43
2022-08-28T11:09:24.957Z,13.50
2022-08-28T11:11:44.111Z,13.57
2022-08-28T11:13:56.987Z,12.47
2022-08-28T11:16:01.614Z,12.60
2022-08-28T11:18:31.773Z,16.23
2022-08-28T11:20:35.166Z,13.50
2022-08-28T11:22:42.615Z,12.47
2022-08-28T11:24:57.967Z,12.33
2022-08-28T11:27:21.423Z,11.47
2022-08-28T11:30:17.891Z,13.33
2022-08-28T11:32:55.204Z,11.67
2022-08-28T11:34:59.907Z,10.90
2022-08-28T11:37:03.732Z,12.20
2022-08-28T11:39:19.118Z,11.70
2022-08-28T11:41:26.292Z,11.23
2022-08-28T11:43:35.877Z,11.70
2022-08-28T11:46:07.357Z,10.87
2022-08-28T11:48:48.329Z,11.40
2022-08-28T11:50:58.480Z,11.80
2022-08-28T11:53:31.563Z,11.43
2022-08-28T11:55:56.930Z,10.80
2022-08-28T12:00:20.466Z,10.33
2022-08-28T12:02:56.523Z,10.47
2022-08-28T12:04:59.337Z,12.87
2022-08-28T12:07:23.877Z,11.50
2022-08-28T12:09:44.022Z,10.60
2022-08-28T12:11:59.113Z,10.33
2022-08-28T12:14:01.868Z,10.93
2022-08-28T12:16:06.863Z,11.10
2022-08-28T12:18:18.030Z,11.87
2022-08-28T12:20:49.027Z,11.03
2022-08-28T12:22:56.376Z,11.60
2022-08-28T12:25:03.270Z,11.30
2022-08-28T12:27:09.037Z,10.63
2022-08-28T12:29:28.021Z,11.13
2022-08-28T12:32:13.419Z,11.50
2022-08-28T12:34:25.413Z,11.37
2022-08-28T12:36:28.905Z,11.40
2022-08-28T12:38:35.464Z,11.10
2022-08-28T12:40:51.139Z,11.60
2022-08-28T12:42:56.491Z,11.60
2022-08-28T12:45:03.204Z,12.00
2022-08-28T12:47:06.505Z,10.90
2022-08-28T12:49:28.394Z,11.20
2022-08-28T12:51:33.330Z,12.00
2022-08-28T12:53:46.724Z,10.97
2022-08-28T12:55:49.521Z,10.77
2022-08-28T12:57:52.619Z,10.63
2022-08-28T12:59:56.816Z,10.60
2022-08-28T13:02:03.108Z,10.67
2022-08-28T13:04:27.112Z,9.73
2022-08-28T13:06:33.356Z,11.07
2022-08-28T13:08:37.386Z,11.37
2022-08-28T13:10:44.365Z,10.67
2022-08-28T13:12:55.963Z,11.50
2022-08-28T13:15:00.174Z,10.47
2022-08-28T13:17:03.056Z,10.37
2022-08-28T13:19:27.860Z,11.47
2022-08-28T13:21:37.322Z,10.23
2022-08-28T13:23:40.578Z,10.37
2022-08-28T13:25:44.674Z,12.60
2022-08-28T13:27:57.271Z,10.77
2022-08-28T13:30:05.472Z,11.00
2022-08-28T13:32:10.130Z,10.60
2022-08-28T13:34:24.588Z,10.70
2022-08-28T13:36:27.430Z,10.47
2022-08-28T13:38:30.269Z,10.83
2022-08-28T13:40:57.452Z,9.87
2022-08-28T13:43:06.941Z,10.10
2022-08-28T13:45:10.438Z,10.10
2022-08-28T13:47:13.886Z,10.87
2022-08-28T13:49:16.975Z,9.93
2022-08-28T13:51:21.368Z,10.33
2022-08-28T13:53:24.193Z,9.93
2022-08-28T13:55:27.005Z,10.40
2022-08-28T13:57:29.954Z,9.80
2022-08-28T13:59:35.411Z,10.77
2022-08-28T14:01:56.995Z,10.47
2022-08-28T14:04:00.342Z,8.57
2022-08-28T14:06:03.760Z,9.30
2022-08-28T14:08:06.479Z,10.33
2022-08-28T14:10:10.249Z,9.20
2022-08-28T14:12:13.255Z,10.57
2022-08-28T14:14:16.096Z,12.53
2022-08-28T14:16:20.223Z,10.57
2022-08-28T14:18:23.859Z,9.53
2022-08-28T14:20:26.564Z,9.30
2022-08-28T14:22:30.919Z,8.90
2022-08-28T14:24:33.703Z,9.50
2022-08-28T14:26:36.520Z,9.90
2022-08-28T14:28:39.228Z,9.63
2022-08-28T14:30:45.248Z,9.20
2022-08-28T14:32:49.400Z,9.60
2022-08-28T14:34:52.091Z,9.33
2022-08-28T14:36:56.023Z,9.00
2022-08-28T14:39:05.404Z,9.47
2022-08-28T14:41:09.728Z,9.70
2022-08-28T14:43:15.363Z,9.20
2022-08-28T14:45:18.305Z,8.83
2022-08-28T14:47:21.709Z,8.90
2022-08-28T14:49:26.853Z,9.13
2022-08-28T14:51:31.906Z,9.50
2022-08-28T14:53:34.849Z,9.10
2022-08-28T14:55:42.388Z,8.00
2022-08-28T14:57:46.052Z,8.13
2022-08-28T14:59:51.656Z,8.90
2022-08-28T15:01:57.997Z,7.30
2022-08-28T15:04:01.104Z,8.17
2022-08-28T15:06:07.896Z,8.43
2022-08-28T15:08:12.809Z,8.20
2022-08-28T15:10:15.420Z,10.90
2022-08-28T15:12:19.828Z,7.93
2022-08-28T15:14:23.252Z,8.17
2022-08-28T15:16:30.347Z,8.67
2022-08-28T15:18:34.339Z,8.90
2022-08-28T15:20:38.959Z,9.47
2022-08-28T15:22:43.048Z,9.20
2022-08-28T15:24:46.395Z,10.13
2022-08-28T15:26:49.200Z,8.77
2022-08-28T15:28:55.643Z,9.50
2022-08-28T15:30:58.324Z,8.40
2022-08-28T15:33:01.073Z,7.80
2022-08-28T15:35:03.925Z,12.70
2022-08-28T15:37:07.844Z,9.27
2022-08-28T15:39:30.863Z,8.87
2022-08-28T15:41:33.603Z,10.43
2022-08-28T15:43:36.379Z,8.97
2022-08-28T15:45:40.036Z,9.20
2022-08-28T15:47:42.838Z,8.20
2022-08-28T15:49:48.772Z,8.27
2022-08-28T15:51:53.241Z,8.17
2022-08-28T15:53:56.486Z,8.83
2022-08-28T15:56:00.673Z,7.30
2022-08-28T15:58:03.414Z,8.63
2022-08-28T16:00:10.368Z,8.30
2022-08-28T16:02:14.379Z,8.07
2022-08-28T16:04:17.642Z,8.27
2022-08-28T16:06:22.310Z,7.90
2022-08-28T16:08:25.070Z,7.60
2022-08-28T16:10:28.128Z,7.97
2022-08-28T16:12:32.492Z,7.20
2022-08-28T16:14:35.429Z,8.27
2022-08-28T16:16:38.484Z,8.60
2022-08-28T16:18:42.362Z,7.50
2022-08-28T16:20:46.111Z,7.90
2022-08-28T16:22:48.801Z,8.53
2022-08-28T16:24:51.673Z,7.30
2022-08-28T16:26:54.662Z,7.57
2022-08-28T16:28:58.894Z,8.13
2022-08-28T16:31:04.922Z,8.27
2022-08-28T16:33:10.662Z,7.03
2022-08-28T16:35:14.860Z,7.97
2022-08-28T16:37:20.824Z,7.40
2022-08-28T16:39:25.551Z,7.47
2022-08-28T16:41:29.177Z,7.90
2022-08-28T16:43:34.508Z,8.40
2022-08-28T16:45:38.915Z,8.30
2022-08-28T16:47:41.654Z,7.47
2022-08-28T16:49:44.359Z,7.77
2022-08-28T16:51:47.483Z,8.73
2022-08-28T16:53:50.123Z,7.93
2022-08-28T16:55:52.801Z,8.00
2022-08-28T16:57:56.199Z,7.60
2022-08-28T17:00:00.030Z,9.00
2022-08-28T17:02:04.085Z,7.60
2022-08-28T17:04:08.131Z,8.17
2022-08-28T17:06:13.783Z,8.00
2022-08-28T17:08:16.986Z,7.77
2022-08-28T17:10:22.877Z,8.00
2022-08-28T17:12:25.595Z,7.97
2022-08-28T17:14:28.384Z,8.70
2022-08-28T17:16:32.168Z,8.30
2022-08-28T17:18:36.557Z,7.40
2022-08-28T17:20:56.707Z,8.03
2022-08-28T17:22:59.492Z,7.77
2022-08-28T17:25:03.569Z,7.90
2022-08-28T17:27:06.706Z,7.63
2022-08-28T17:29:09.909Z,7.30
2022-08-28T17:31:13.765Z,7.70
2022-08-28T17:33:16.744Z,8.50
2022-08-28T17:35:21.109Z,8.80
2022-08-28T17:37:26.067Z,7.80
2022-08-28T17:39:28.701Z,8.00
2022-08-28T17:41:31.982Z,7.40
2022-08-28T17:43:36.015Z,8.40
2022-08-28T17:45:38.769Z,8.10
2022-08-28T17:47:41.977Z,8.57
2022-08-28T17:49:44.716Z,8.63
2022-08-28T17:51:48.858Z,7.67
2022-08-28T17:53:51.543Z,8.47
2022-08-28T17:55:54.242Z,7.30
2022-08-28T17:57:56.972Z,7.80
2022-08-28T18:00:00.923Z,8.00
2022-08-28T18:02:03.709Z,8.17
2022-08-28T18:04:06.828Z,8.13
2022-08-28T18:06:09.569Z,7.67
2022-08-28T18:08:13.902Z,7.63
2022-08-28T18:10:16.845Z,9.27
2022-08-28T18:12:19.730Z,8.20
2022-08-28T18:14:22.594Z,8.40
2022-08-28T18:16:30.359Z,8.27
2022-08-28T18:18:36.352Z,8.47
2022-08-28T18:20:39.359Z,7.97
2022-08-28T18:22:42.084Z,8.30
2022-08-28T18:24:46.204Z,8.10
2022-08-28T18:26:49.438Z,7.90
2022-08-28T18:28:52.626Z,7.93
2022-08-28T18:30:55.626Z,7.90
2022-08-28T18:32:58.617Z,8.63
2022-08-28T18:35:01.348Z,8.57
2022-08-28T18:37:04.101Z,8.60
2022-08-28T18:39:06.925Z,8.73
2022-08-28T18:41:12.131Z,8.53
2022-08-28T18:43:15.112Z,9.30
2022-08-28T18:45:18.709Z,8.93
2022-08-28T18:47:21.492Z,8.20
2022-08-28T18:49:24.186Z,8.93
2022-08-28T18:51:27.045Z,8.40
2022-08-28T18:53:29.841Z,8.70
2022-08-28T18:55:33.782Z,9.57
2022-08-28T18:57:37.843Z,8.73
2022-08-28T18:59:40.632Z,8.40
2022-08-28T19:01:43.687Z,9.63
2022-08-28T19:03:46.562Z,8.87
2022-08-28T19:05:49.591Z,8.50
2022-08-28T19:07:53.274Z,8.53
2022-08-28T19:09:57.274Z,8.90
2022-08-28T19:12:00.082Z,8.13
2022-08-28T19:14:04.736Z,9.47
2022-08-28T19:16:07.800Z,8.90
2022-08-28T19:18:11.859Z,9.47
2022-08-28T19:20:19.618Z,12.83
2022-08-28T19:22:23.369Z,9.27
2022-08-28T19:24:30.370Z,9.10
2022-08-28T19:26:33.597Z,9.07
2022-08-28T19:28:37.431Z,9.50
2022-08-28T19:30:42.089Z,9.50
2022-08-28T19:32:46.370Z,8.60
2022-08-28T19:34:49.050Z,8.80
2022-08-28T19:36:51.950Z,9.33
2022-08-28T19:38:54.683Z,9.47
2022-08-28T19:40:57.465Z,10.20
2022-08-28T19:43:00.727Z,8.53
2022-08-28T19:45:03.896Z,9.03
2022-08-28T19:47:08.150Z,9.13
2022-08-28T19:49:11.099Z,8.03
2022-08-28T19:51:22.465Z,8.57
2022-08-28T19:53:26.345Z,10.03
2022-08-28T19:55:29.820Z,10.37
2022-08-28T19:57:32.702Z,9.80
2022-08-28T19:59:36.177Z,9.17
2022-08-28T20:01:43.480Z,9.60
2022-08-28T20:03:47.933Z,9.33
2022-08-28T20:05:50.854Z,9.60
2022-08-28T20:07:53.706Z,9.20
2022-08-28T20:09:56.360Z,9.80
2022-08-28T20:12:00.768Z,9.60
2022-08-28T20:14:06.062Z,10.13
2022-08-28T20:16:09.135Z,10.40
2022-08-28T20:18:12.359Z,9.20
2022-08-28T20:20:17.702Z,9.93
2022-08-28T20:22:20.399Z,9.23
2022-08-28T20:24:24.896Z,10.60
2022-08-28T20:26:28.090Z,9.50
2022-08-28T20:28:31.601Z,9.63
2022-08-28T20:30:34.312Z,12.13
2022-08-28T20:32:39.956Z,9.17
2022-08-28T20:34:44.608Z,10.37
2022-08-28T20:36:49.192Z,12.57
2022-08-28T20:38:51.880Z,10.97
2022-08-28T20:41:02.817Z,10.43
2022-08-28T20:43:06.500Z,10.07
2022-08-28T20:45:09.960Z,10.37
2022-08-28T20:47:12.566Z,10.47
2022-08-28T20:49:16.288Z,10.63
2022-08-28T20:51:39.379Z,10.37
2022-08-28T20:53:43.460Z,10.10
2022-08-28T20:55:46.744Z,10.47
2022-08-28T20:57:49.432Z,15.13
2022-08-28T20:59:54.066Z,10.90
2022-08-28T21:01:56.792Z,9.33
2022-08-28T21:03:59.580Z,11.50
2022-08-28T21:06:02.348Z,10.30
2022-08-28T21:08:05.090Z,10.53
2022-08-28T21:10:09.859Z,11.20
2022-08-28T21:12:12.905Z,10.23
2022-08-28T21:14:16.035Z,10.30
2022-08-28T21:16:19.088Z,9.40
2022-08-28T21:18:21.805Z,10.33
2022-08-28T21:20:26.798Z,10.40
2022-08-28T21:22:31.478Z,9.57
2022-08-28T21:24:34.292Z,9.53
2022-08-28T21:26:40.500Z,10.43
2022-08-28T21:28:45.388Z,10.40
2022-08-28T21:30:48.145Z,9.80
2022-08-28T21:32:51.160Z,9.90
2022-08-28T21:34:55.689Z,10.00
2022-08-28T21:36:58.541Z,9.33
2022-08-28T21:39:01.216Z,9.80
2022-08-28T21:41:05.088Z,9.53
2022-08-28T21:43:09.202Z,10.33
2022-08-28T21:45:13.220Z,9.40
2022-08-28T21:47:15.908Z,10.80
2022-08-28T21:49:18.626Z,9.23
2022-08-28T21:51:21.647Z,10.53
2022-08-28T21:53:25.007Z,9.70
2022-08-28T21:55:27.691Z,10.57
2022-08-28T21:57:31.192Z,10.70
2022-08-28T21:59:37.867Z,10.43
2022-08-28T22:01:41.078Z,11.47
2022-08-28T22:03:44.496Z,10.53
2022-08-28T22:05:49.424Z,12.97
2022-08-28T22:07:52.145Z,8.90
2022-08-28T22:09:54.841Z,9.70
2022-08-28T22:11:57.578Z,9.40
2022-08-28T22:14:00.992Z,9.53
2022-08-28T22:16:05.601Z,9.10
2022-08-28T22:18:08.893Z,10.23
2022-08-28T22:20:12.050Z,9.27
2022-08-28T22:22:32.764Z,9.30
2022-08-28T22:24:36.559Z,9.30
2022-08-28T22:26:39.269Z,9.87
2022-08-28T22:28:42.011Z,14.67
2022-08-28T22:30:44.717Z,8.43
2022-08-28T22:32:48.981Z,9.13
2022-08-28T22:34:51.616Z,10.27
2022-08-28T22:36:54.259Z,8.70
2022-08-28T22:38:58.305Z,9.40
2022-08-28T22:41:00.997Z,10.03
2022-08-28T22:43:03.738Z,8.83
2022-08-28T22:45:07.444Z,9.03
2022-08-28T22:47:10.083Z,8.10
2022-08-28T22:49:14.187Z,8.40
2022-08-28T22:51:19.232Z,9.57
2022-08-28T22:53:22.133Z,9.13
2022-08-28T22:55:24.998Z,8.90
2022-08-28T22:57:29.234Z,9.00
2022-08-28T22:59:32.274Z,8.90
2022-08-28T23:01:35.365Z,8.23
2022-08-28T23:03:38.163Z,8.67
2022-08-28T23:05:42.609Z,8.93
2022-08-28T23:07:45.527Z,8.77
2022-08-28T23:09:48.312Z,8.67
2022-08-28T23:11:51.313Z,9.33
2022-08-28T23:13:54.035Z,8.30
2022-08-28T23:15:56.734Z,9.60
2022-08-28T23:17:59.466Z,9.03
2022-08-28T23:20:05.633Z,8.60
2022-08-28T23:22:09.710Z,9.73
2022-08-28T23:24:13.472Z,9.70
2022-08-28T23:26:17.159Z,9.20
2022-08-28T23:28:20.778Z,8.00
2022-08-28T23:30:24.469Z,8.60
2022-08-28T23:32:28.422Z,9.70
2022-08-28T23:34:31.121Z,9.03
2022-08-28T23:36:35.874Z,8.27
2022-08-28T23:38:42.910Z,8.87
2022-08-28T23:40:46.058Z,8.33
2022-08-28T23:42:48.950Z,9.30
2022-08-28T23:44:52.319Z,9.10
2022-08-28T23:46:56.329Z,8.67
2022-08-28T23:49:00.027Z,9.00
2022-08-28T23:51:02.908Z,9.27
2022-08-28T23:53:05.892Z,9.77
2022-08-28T23:55:12.052Z,8.50
2022-08-28T23:57:14.952Z,9.50
2022-08-28T23:59:21.319Z,10.70
